sensor_id;sensor_type;location;lat;lon;timestamp;P1;durP1;ratioP1;P2;durP2;ratioP2
75990;SDS011;64673;52.276;10.560;2022-12-15T00:02:28;30.42;;;9.75;;
75990;SDS011;64673;52.276;10.560;2022-12-15T00:05:12;24.23;;;9.77;;
75990;SDS011;64673;52.276;10.560;2022-12-15T00:07:55;19.00;;;9.02;;
75990;SDS011;64673;52.276;10.560;2022-12-15T00:10:39;27.00;;;10.18;;
75990;SDS011;64673;52.276;10.560;2022-12-15T00:13:23;16.90;;;8.23;;
75990;SDS011;64673;52.276;10.560;2022-12-15T00:16:07;21.63;;;9.40;;
75990;SDS011;64673;52.276;10.560;2022-12-15T00:18:52;22.52;;;9.70;;
75990;SDS011;64673;52.276;10.560;2022-12-15T00:21:36;18.33;;;9.25;;
75990;SDS011;64673;52.276;10.560;2022-12-15T00:24:20;23.60;;;9.57;;
75990;SDS011;64673;52.276;10.560;2022-12-15T00:27:04;21.70;;;9.23;;
75990;SDS011;64673;52.276;10.560;2022-12-15T00:29:48;26.42;;;9.40;;
75990;SDS011;64673;52.276;10.560;2022-12-15T00:32:32;31.73;;;11.00;;
75990;SDS011;64673;52.276;10.560;2022-12-15T00:35:16;22.55;;;9.98;;
75990;SDS011;64673;52.276;10.560;2022-12-15T00:38:11;23.27;;;8.40;;
75990;SDS011;64673;52.276;10.560;2022-12-15T00:40:58;23.30;;;8.98;;
75990;SDS011;64673;52.276;10.560;2022-12-15T00:43:28;23.60;;;9.27;;
75990;SDS011;64673;52.276;10.560;2022-12-15T00:45:55;24.25;;;10.20;;
75990;SDS011;64673;52.276;10.560;2022-12-15T00:48:40;22.85;;;9.23;;
75990;SDS011;64673;52.276;10.560;2022-12-15T00:51:06;22.73;;;8.55;;
75990;SDS011;64673;52.276;10.560;2022-12-15T00:53:31;26.00;;;10.10;;
75990;SDS011;64673;52.276;10.560;2022-12-15T00:56:15;20.60;;;9.43;;
75990;SDS011;64673;52.276;10.560;2022-12-15T00:58:59;26.40;;;9.27;;
75990;SDS011;64673;52.276;10.560;2022-12-15T01:01:43;28.25;;;8.75;;
75990;SDS011;64673;52.276;10.560;2022-12-15T01:04:27;18.98;;;8.02;;
75990;SDS011;64673;52.276;10.560;2022-12-15T01:07:11;25.27;;;9.43;;
75990;SDS011;64673;52.276;10.560;2022-12-15T01:09:55;18.65;;;9.40;;
75990;SDS011;64673;52.276;10.560;2022-12-15T01:12:38;20.50;;;9.23;;
75990;SDS011;64673;52.276;10.560;2022-12-15T01:15:22;25.58;;;9.15;;
75990;SDS011;64673;52.276;10.560;2022-12-15T01:18:06;26.10;;;9.60;;
75990;SDS011;64673;52.276;10.560;2022-12-15T01:20:56;19.23;;;8.48;;
75990;SDS011;64673;52.276;10.560;2022-12-15T01:23:25;20.30;;;8.43;;
75990;SDS011;64673;52.276;10.560;2022-12-15T01:25:51;25.98;;;10.90;;
75990;SDS011;64673;52.276;10.560;2022-12-15T01:28:17;21.27;;;9.98;;
75990;SDS011;64673;52.276;10.560;2022-12-15T01:30:44;22.88;;;10.02;;
75990;SDS011;64673;52.276;10.560;2022-12-15T01:33:09;21.50;;;8.75;;
75990;SDS011;64673;52.276;10.560;2022-12-15T01:35:36;20.40;;;9.27;;
75990;SDS011;64673;52.276;10.560;2022-12-15T01:38:01;24.25;;;8.45;;
75990;SDS011;64673;52.276;10.560;2022-12-15T01:40:27;19.70;;;8.93;;
75990;SDS011;64673;52.276;10.560;2022-12-15T01:43:12;24.00;;;9.10;;
75990;SDS011;64673;52.276;10.560;2022-12-15T01:48:14;23.67;;;7.60;;
75990;SDS011;64673;52.276;10.560;2022-12-15T01:53:34;18.70;;;9.07;;
75990;SDS011;64673;52.276;10.560;2022-12-15T01:56:06;21.88;;;8.77;;
75990;SDS011;64673;52.276;10.560;2022-12-15T01:58:33;18.40;;;8.77;;
75990;SDS011;64673;52.276;10.560;2022-12-15T02:01:00;19.83;;;8.63;;
75990;SDS011;64673;52.276;10.560;2022-12-15T02:03:26;18.95;;;8.90;;
75990;SDS011;64673;52.276;10.560;2022-12-15T02:05:52;18.58;;;7.60;;
75990;SDS011;64673;52.276;10.560;2022-12-15T02:08:19;20.63;;;8.40;;
75990;SDS011;64673;52.276;10.560;2022-12-15T02:38:26;21.20;;;7.53;;
75990;SDS011;64673;52.276;10.560;2022-12-15T02:40:59;14.40;;;6.80;;
75990;SDS011;64673;52.276;10.560;2022-12-15T02:43:26;19.48;;;8.40;;
75990;SDS011;64673;52.276;10.560;2022-12-15T02:54:35;20.58;;;8.93;;
75990;SDS011;64673;52.276;10.560;2022-12-15T02:59:55;18.58;;;7.53;;
75990;SDS011;64673;52.276;10.560;2022-12-15T03:02:27;16.83;;;7.70;;
75990;SDS011;64673;52.276;10.560;2022-12-15T03:04:55;16.80;;;7.57;;
75990;SDS011;64673;52.276;10.560;2022-12-15T03:07:21;22.73;;;8.95;;
75990;SDS011;64673;52.276;10.560;2022-12-15T03:09:50;17.05;;;7.85;;
75990;SDS011;64673;52.276;10.560;2022-12-15T03:12:16;20.23;;;7.50;;
75990;SDS011;64673;52.276;10.560;2022-12-15T03:14:41;20.55;;;7.72;;
75990;SDS011;64673;52.276;10.560;2022-12-15T03:17:06;18.75;;;8.13;;
75990;SDS011;64673;52.276;10.560;2022-12-15T03:19:32;17.02;;;8.10;;
75990;SDS011;64673;52.276;10.560;2022-12-15T03:21:58;26.98;;;8.73;;
75990;SDS011;64673;52.276;10.560;2022-12-15T03:24:23;16.42;;;8.23;;
75990;SDS011;64673;52.276;10.560;2022-12-15T03:26:48;18.95;;;7.80;;
75990;SDS011;64673;52.276;10.560;2022-12-15T03:29:14;18.77;;;7.55;;
75990;SDS011;64673;52.276;10.560;2022-12-15T03:31:41;15.88;;;7.00;;
75990;SDS011;64673;52.276;10.560;2022-12-15T03:34:06;15.38;;;7.78;;
75990;SDS011;64673;52.276;10.560;2022-12-15T03:36:33;21.40;;;8.40;;
75990;SDS011;64673;52.276;10.560;2022-12-15T03:38:58;16.50;;;7.55;;
75990;SDS011;64673;52.276;10.560;2022-12-15T03:41:23;18.17;;;7.30;;
75990;SDS011;64673;52.276;10.560;2022-12-15T03:43:49;21.95;;;9.70;;
75990;SDS011;64673;52.276;10.560;2022-12-15T03:46:14;17.10;;;7.78;;
75990;SDS011;64673;52.276;10.560;2022-12-15T03:48:39;14.82;;;6.60;;
75990;SDS011;64673;52.276;10.560;2022-12-15T03:51:05;16.40;;;7.43;;
75990;SDS011;64673;52.276;10.560;2022-12-15T03:53:30;15.80;;;7.18;;
75990;SDS011;64673;52.276;10.560;2022-12-15T03:55:56;15.75;;;6.75;;
75990;SDS011;64673;52.276;10.560;2022-12-15T03:58:21;24.50;;;8.33;;
75990;SDS011;64673;52.276;10.560;2022-12-15T04:00:46;17.67;;;8.18;;
75990;SDS011;64673;52.276;10.560;2022-12-15T04:03:12;13.48;;;6.20;;
75990;SDS011;64673;52.276;10.560;2022-12-15T04:05:37;18.92;;;8.10;;
75990;SDS011;64673;52.276;10.560;2022-12-15T04:08:03;14.27;;;7.57;;
75990;SDS011;64673;52.276;10.560;2022-12-15T04:10:30;12.00;;;7.03;;
75990;SDS011;64673;52.276;10.560;2022-12-15T04:12:58;16.63;;;8.20;;
75990;SDS011;64673;52.276;10.560;2022-12-15T04:15:24;20.63;;;6.63;;
75990;SDS011;64673;52.276;10.560;2022-12-15T04:17:50;17.02;;;7.88;;
75990;SDS011;64673;52.276;10.560;2022-12-15T04:20:15;18.23;;;8.00;;
75990;SDS011;64673;52.276;10.560;2022-12-15T04:22:44;19.05;;;7.53;;
75990;SDS011;64673;52.276;10.560;2022-12-15T04:25:13;18.58;;;7.40;;
75990;SDS011;64673;52.276;10.560;2022-12-15T04:27:59;12.35;;;6.55;;
75990;SDS011;64673;52.276;10.560;2022-12-15T04:30:44;14.73;;;6.68;;
75990;SDS011;64673;52.276;10.560;2022-12-15T04:33:31;19.65;;;8.35;;
75990;SDS011;64673;52.276;10.560;2022-12-15T04:36:15;16.38;;;7.43;;
75990;SDS011;64673;52.276;10.560;2022-12-15T04:39:00;17.27;;;6.65;;
75990;SDS011;64673;52.276;10.560;2022-12-15T04:41:47;15.25;;;7.35;;
75990;SDS011;64673;52.276;10.560;2022-12-15T04:44:31;13.90;;;6.60;;
75990;SDS011;64673;52.276;10.560;2022-12-15T04:47:15;15.73;;;6.82;;
75990;SDS011;64673;52.276;10.560;2022-12-15T04:49:59;18.67;;;7.22;;
75990;SDS011;64673;52.276;10.560;2022-12-15T04:52:43;13.60;;;6.85;;
75990;SDS011;64673;52.276;10.560;2022-12-15T04:55:27;17.60;;;7.28;;
75990;SDS011;64673;52.276;10.560;2022-12-15T04:58:11;17.77;;;6.30;;
75990;SDS011;64673;52.276;10.560;2022-12-15T05:00:58;23.75;;;7.70;;
75990;SDS011;64673;52.276;10.560;2022-12-15T05:03:42;20.50;;;7.10;;
75990;SDS011;64673;52.276;10.560;2022-12-15T05:06:26;13.95;;;6.60;;
75990;SDS011;64673;52.276;10.560;2022-12-15T05:09:10;12.82;;;6.50;;
75990;SDS011;64673;52.276;10.560;2022-12-15T05:11:54;12.73;;;6.20;;
75990;SDS011;64673;52.276;10.560;2022-12-15T05:14:38;16.35;;;7.00;;
75990;SDS011;64673;52.276;10.560;2022-12-15T05:17:22;17.52;;;7.38;;
75990;SDS011;64673;52.276;10.560;2022-12-15T05:20:06;23.55;;;8.45;;
75990;SDS011;64673;52.276;10.560;2022-12-15T05:22:54;15.98;;;7.55;;
75990;SDS011;64673;52.276;10.560;2022-12-15T05:25:38;18.80;;;6.82;;
75990;SDS011;64673;52.276;10.560;2022-12-15T05:28:22;13.68;;;6.90;;
75990;SDS011;64673;52.276;10.560;2022-12-15T05:31:06;14.55;;;6.88;;
75990;SDS011;64673;52.276;10.560;2022-12-15T05:33:51;14.80;;;6.80;;
75990;SDS011;64673;52.276;10.560;2022-12-15T05:36:17;15.70;;;6.18;;
75990;SDS011;64673;52.276;10.560;2022-12-15T05:38:42;15.13;;;6.47;;
75990;SDS011;64673;52.276;10.560;2022-12-15T05:41:09;15.93;;;6.67;;
75990;SDS011;64673;52.276;10.560;2022-12-15T05:43:34;15.32;;;7.22;;
75990;SDS011;64673;52.276;10.560;2022-12-15T05:46:02;16.93;;;7.40;;
75990;SDS011;64673;52.276;10.560;2022-12-15T05:48:28;13.52;;;6.35;;
75990;SDS011;64673;52.276;10.560;2022-12-15T05:50:54;19.90;;;7.63;;
75990;SDS011;64673;52.276;10.560;2022-12-15T05:53:19;15.63;;;7.33;;
75990;SDS011;64673;52.276;10.560;2022-12-15T05:55:44;17.10;;;7.93;;
75990;SDS011;64673;52.276;10.560;2022-12-15T05:58:09;16.10;;;8.32;;
75990;SDS011;64673;52.276;10.560;2022-12-15T06:00:35;16.10;;;7.72;;
75990;SDS011;64673;52.276;10.560;2022-12-15T06:03:00;12.57;;;6.78;;
75990;SDS011;64673;52.276;10.560;2022-12-15T06:05:26;17.08;;;6.80;;
75990;SDS011;64673;52.276;10.560;2022-12-15T06:07:52;15.60;;;6.75;;
75990;SDS011;64673;52.276;10.560;2022-12-15T06:10:17;21.20;;;8.35;;
75990;SDS011;64673;52.276;10.560;2022-12-15T06:12:42;20.55;;;7.43;;
75990;SDS011;64673;52.276;10.560;2022-12-15T06:15:08;15.20;;;7.20;;
75990;SDS011;64673;52.276;10.560;2022-12-15T06:17:33;18.75;;;6.50;;
75990;SDS011;64673;52.276;10.560;2022-12-15T06:19:59;19.90;;;7.15;;
75990;SDS011;64673;52.276;10.560;2022-12-15T06:22:24;16.63;;;7.47;;
75990;SDS011;64673;52.276;10.560;2022-12-15T06:24:51;18.75;;;8.13;;
75990;SDS011;64673;52.276;10.560;2022-12-15T06:27:17;22.70;;;7.90;;
75990;SDS011;64673;52.276;10.560;2022-12-15T06:29:42;12.95;;;6.50;;
75990;SDS011;64673;52.276;10.560;2022-12-15T06:32:07;17.70;;;7.20;;
75990;SDS011;64673;52.276;10.560;2022-12-15T06:34:32;18.07;;;7.10;;
75990;SDS011;64673;52.276;10.560;2022-12-15T06:36:58;25.20;;;7.80;;
75990;SDS011;64673;52.276;10.560;2022-12-15T06:39:23;18.07;;;7.53;;
75990;SDS011;64673;52.276;10.560;2022-12-15T06:41:48;14.95;;;7.63;;
75990;SDS011;64673;52.276;10.560;2022-12-15T06:44:14;15.48;;;6.50;;
75990;SDS011;64673;52.276;10.560;2022-12-15T06:46:40;15.65;;;6.88;;
75990;SDS011;64673;52.276;10.560;2022-12-15T06:49:06;19.10;;;6.45;;
75990;SDS011;64673;52.276;10.560;2022-12-15T06:51:32;18.23;;;6.68;;
75990;SDS011;64673;52.276;10.560;2022-12-15T06:53:57;14.23;;;6.43;;
75990;SDS011;64673;52.276;10.560;2022-12-15T06:56:30;15.10;;;7.03;;
75990;SDS011;64673;52.276;10.560;2022-12-15T06:58:57;13.98;;;7.38;;
75990;SDS011;64673;52.276;10.560;2022-12-15T07:01:23;19.15;;;8.75;;
75990;SDS011;64673;52.276;10.560;2022-12-15T07:03:49;20.52;;;9.40;;
75990;SDS011;64673;52.276;10.560;2022-12-15T07:06:16;16.98;;;8.07;;
75990;SDS011;64673;52.276;10.560;2022-12-15T07:08:42;20.40;;;8.13;;
75990;SDS011;64673;52.276;10.560;2022-12-15T07:11:09;17.50;;;8.57;;
75990;SDS011;64673;52.276;10.560;2022-12-15T07:13:36;23.98;;;9.25;;
75990;SDS011;64673;52.276;10.560;2022-12-15T07:16:03;20.30;;;8.48;;
75990;SDS011;64673;52.276;10.560;2022-12-15T07:18:30;16.35;;;7.65;;
75990;SDS011;64673;52.276;10.560;2022-12-15T07:20:56;23.75;;;9.32;;
75990;SDS011;64673;52.276;10.560;2022-12-15T07:25:56;18.00;;;8.55;;
75990;SDS011;64673;52.276;10.560;2022-12-15T07:28:21;32.42;;;12.82;;
75990;SDS011;64673;52.276;10.560;2022-12-15T07:30:46;35.38;;;14.40;;
75990;SDS011;64673;52.276;10.560;2022-12-15T07:33:12;31.40;;;12.30;;
75990;SDS011;64673;52.276;10.560;2022-12-15T07:35:37;33.17;;;13.10;;
75990;SDS011;64673;52.276;10.560;2022-12-15T07:38:06;37.80;;;13.13;;
75990;SDS011;64673;52.276;10.560;2022-12-15T07:40:32;31.35;;;11.73;;
75990;SDS011;64673;52.276;10.560;2022-12-15T07:42:57;24.90;;;10.18;;
75990;SDS011;64673;52.276;10.560;2022-12-15T07:45:22;25.10;;;10.25;;
75990;SDS011;64673;52.276;10.560;2022-12-15T07:47:48;34.57;;;12.00;;
75990;SDS011;64673;52.276;10.560;2022-12-15T07:50:15;22.40;;;9.50;;
75990;SDS011;64673;52.276;10.560;2022-12-15T07:52:41;23.73;;;9.52;;
75990;SDS011;64673;52.276;10.560;2022-12-15T07:55:07;23.65;;;9.38;;
75990;SDS011;64673;52.276;10.560;2022-12-15T07:57:32;16.75;;;8.07;;
75990;SDS011;64673;52.276;10.560;2022-12-15T07:59:58;25.00;;;8.50;;
75990;SDS011;64673;52.276;10.560;2022-12-15T08:02:23;14.98;;;7.70;;
75990;SDS011;64673;52.276;10.560;2022-12-15T08:04:48;22.20;;;9.00;;
75990;SDS011;64673;52.276;10.560;2022-12-15T08:07:13;18.90;;;8.43;;
75990;SDS011;64673;52.276;10.560;2022-12-15T08:09:39;17.77;;;7.50;;
75990;SDS011;64673;52.276;10.560;2022-12-15T08:12:04;20.25;;;8.60;;
75990;SDS011;64673;52.276;10.560;2022-12-15T08:14:30;15.55;;;7.18;;
75990;SDS011;64673;52.276;10.560;2022-12-15T08:16:56;23.35;;;8.15;;
75990;SDS011;64673;52.276;10.560;2022-12-15T08:19:21;17.67;;;7.75;;
75990;SDS011;64673;52.276;10.560;2022-12-15T08:21:46;28.55;;;9.98;;
75990;SDS011;64673;52.276;10.560;2022-12-15T08:24:12;23.05;;;9.60;;
75990;SDS011;64673;52.276;10.560;2022-12-15T08:26:39;17.75;;;8.55;;
75990;SDS011;64673;52.276;10.560;2022-12-15T08:29:06;19.85;;;8.68;;
75990;SDS011;64673;52.276;10.560;2022-12-15T08:31:34;16.17;;;8.70;;
75990;SDS011;64673;52.276;10.560;2022-12-15T08:34:00;18.27;;;8.57;;
75990;SDS011;64673;52.276;10.560;2022-12-15T08:36:26;21.70;;;9.10;;
75990;SDS011;64673;52.276;10.560;2022-12-15T08:38:57;14.98;;;8.45;;
75990;SDS011;64673;52.276;10.560;2022-12-15T08:41:24;19.50;;;8.77;;
75990;SDS011;64673;52.276;10.560;2022-12-15T08:46:18;22.35;;;6.80;;
75990;SDS011;64673;52.276;10.560;2022-12-15T08:48:46;23.33;;;10.00;;
75990;SDS011;64673;52.276;10.560;2022-12-15T08:51:12;18.83;;;8.43;;
75990;SDS011;64673;52.276;10.560;2022-12-15T08:53:37;16.65;;;7.38;;
75990;SDS011;64673;52.276;10.560;2022-12-15T08:56:04;17.77;;;7.93;;
75990;SDS011;64673;52.276;10.560;2022-12-15T08:58:31;18.88;;;8.35;;
75990;SDS011;64673;52.276;10.560;2022-12-15T09:01:00;20.13;;;7.90;;
75990;SDS011;64673;52.276;10.560;2022-12-15T09:03:30;18.90;;;9.35;;
75990;SDS011;64673;52.276;10.560;2022-12-15T09:06:00;21.52;;;8.68;;
75990;SDS011;64673;52.276;10.560;2022-12-15T09:08:37;18.13;;;8.57;;
75990;SDS011;64673;52.276;10.560;2022-12-15T09:11:02;19.95;;;8.15;;
75990;SDS011;64673;52.276;10.560;2022-12-15T09:13:29;21.25;;;7.45;;
75990;SDS011;64673;52.276;10.560;2022-12-15T09:16:28;16.33;;;7.13;;
75990;SDS011;64673;52.276;10.560;2022-12-15T09:18:49;14.55;;;7.38;;
75990;SDS011;64673;52.276;10.560;2022-12-15T09:21:16;16.88;;;7.85;;
75990;SDS011;64673;52.276;10.560;2022-12-15T09:23:44;15.93;;;7.18;;
75990;SDS011;64673;52.276;10.560;2022-12-15T09:26:12;19.38;;;7.95;;
75990;SDS011;64673;52.276;10.560;2022-12-15T09:28:38;17.98;;;8.93;;
75990;SDS011;64673;52.276;10.560;2022-12-15T09:31:09;17.00;;;7.63;;
75990;SDS011;64673;52.276;10.560;2022-12-15T09:33:36;21.00;;;7.70;;
75990;SDS011;64673;52.276;10.560;2022-12-15T09:36:02;19.38;;;8.13;;
75990;SDS011;64673;52.276;10.560;2022-12-15T09:38:28;16.55;;;7.78;;
75990;SDS011;64673;52.276;10.560;2022-12-15T09:40:55;20.38;;;8.18;;
75990;SDS011;64673;52.276;10.560;2022-12-15T09:43:22;18.52;;;8.02;;
75990;SDS011;64673;52.276;10.560;2022-12-15T09:45:58;17.90;;;8.60;;
75990;SDS011;64673;52.276;10.560;2022-12-15T09:48:37;16.95;;;6.85;;
75990;SDS011;64673;52.276;10.560;2022-12-15T09:51:07;18.90;;;7.75;;
75990;SDS011;64673;52.276;10.560;2022-12-15T09:53:36;15.70;;;7.00;;
75990;SDS011;64673;52.276;10.560;2022-12-15T09:56:12;17.30;;;8.02;;
75990;SDS011;64673;52.276;10.560;2022-12-15T09:58:48;13.98;;;6.65;;
75990;SDS011;64673;52.276;10.560;2022-12-15T10:04:19;14.05;;;6.53;;
75990;SDS011;64673;52.276;10.560;2022-12-15T10:06:56;13.88;;;7.10;;
75990;SDS011;64673;52.276;10.560;2022-12-15T10:09:33;16.73;;;7.03;;
75990;SDS011;64673;52.276;10.560;2022-12-15T10:14:44;14.15;;;7.18;;
75990;SDS011;64673;52.276;10.560;2022-12-15T10:22:46;14.98;;;7.15;;
75990;SDS011;64673;52.276;10.560;2022-12-15T10:25:19;16.08;;;6.90;;
75990;SDS011;64673;52.276;10.560;2022-12-15T10:30:42;19.58;;;8.30;;
75990;SDS011;64673;52.276;10.560;2022-12-15T10:35:45;14.93;;;6.78;;
75990;SDS011;64673;52.276;10.560;2022-12-15T10:40:49;17.60;;;7.45;;
75990;SDS011;64673;52.276;10.560;2022-12-15T10:46:05;19.50;;;7.40;;
75990;SDS011;64673;52.276;10.560;2022-12-15T10:48:37;14.90;;;6.50;;
75990;SDS011;64673;52.276;10.560;2022-12-15T10:56:24;15.27;;;6.93;;
75990;SDS011;64673;52.276;10.560;2022-12-15T10:58:52;16.60;;;7.13;;
75990;SDS011;64673;52.276;10.560;2022-12-15T11:01:26;20.65;;;7.50;;
75990;SDS011;64673;52.276;10.560;2022-12-15T11:03:53;12.10;;;6.13;;
75990;SDS011;64673;52.276;10.560;2022-12-15T11:08:46;16.35;;;7.55;;
75990;SDS011;64673;52.276;10.560;2022-12-15T11:11:23;17.40;;;6.65;;
75990;SDS011;64673;52.276;10.560;2022-12-15T11:14:23;18.45;;;6.05;;
75990;SDS011;64673;52.276;10.560;2022-12-15T11:16:55;13.20;;;6.20;;
75990;SDS011;64673;52.276;10.560;2022-12-15T11:22:04;13.82;;;6.13;;
75990;SDS011;64673;52.276;10.560;2022-12-15T11:24:48;17.67;;;6.75;;
75990;SDS011;64673;52.276;10.560;2022-12-15T11:27:31;19.15;;;6.43;;
75990;SDS011;64673;52.276;10.560;2022-12-15T11:35:13;13.20;;;5.50;;
75990;SDS011;64673;52.276;10.560;2022-12-15T11:37:42;15.43;;;5.70;;
75990;SDS011;64673;52.276;10.560;2022-12-15T11:43:03;15.20;;;6.15;;
75990;SDS011;64673;52.276;10.560;2022-12-15T11:51:26;16.75;;;6.18;;
75990;SDS011;64673;52.276;10.560;2022-12-15T11:57:01;16.25;;;5.68;;
75990;SDS011;64673;52.276;10.560;2022-12-15T12:02:42;16.05;;;6.63;;
75990;SDS011;64673;52.276;10.560;2022-12-15T12:15:34;16.25;;;6.32;;
75990;SDS011;64673;52.276;10.560;2022-12-15T12:18:07;14.38;;;5.68;;
75990;SDS011;64673;52.276;10.560;2022-12-15T12:20:52;12.68;;;5.85;;
75990;SDS011;64673;52.276;10.560;2022-12-15T12:23:30;20.83;;;6.72;;
75990;SDS011;64673;52.276;10.560;2022-12-15T12:29:11;17.58;;;5.78;;
75990;SDS011;64673;52.276;10.560;2022-12-15T12:34:31;10.77;;;4.95;;
75990;SDS011;64673;52.276;10.560;2022-12-15T12:37:52;16.38;;;5.82;;
75990;SDS011;64673;52.276;10.560;2022-12-15T12:40:02;11.80;;;5.40;;
75990;SDS011;64673;52.276;10.560;2022-12-15T12:42:39;11.60;;;5.90;;
75990;SDS011;64673;52.276;10.560;2022-12-15T12:45:10;13.25;;;5.13;;
75990;SDS011;64673;52.276;10.560;2022-12-15T12:47:39;13.82;;;5.35;;
75990;SDS011;64673;52.276;10.560;2022-12-15T12:50:14;13.60;;;5.40;;
75990;SDS011;64673;52.276;10.560;2022-12-15T12:52:53;13.80;;;5.53;;
75990;SDS011;64673;52.276;10.560;2022-12-15T12:55:42;16.30;;;5.38;;
75990;SDS011;64673;52.276;10.560;2022-12-15T13:01:04;13.23;;;5.47;;
75990;SDS011;64673;52.276;10.560;2022-12-15T13:03:30;12.32;;;5.05;;
75990;SDS011;64673;52.276;10.560;2022-12-15T13:05:55;13.70;;;5.22;;
75990;SDS011;64673;52.276;10.560;2022-12-15T13:08:54;10.63;;;5.32;;
75990;SDS011;64673;52.276;10.560;2022-12-15T13:14:17;10.02;;;5.15;;
75990;SDS011;64673;52.276;10.560;2022-12-15T13:16:43;11.07;;;5.72;;
75990;SDS011;64673;52.276;10.560;2022-12-15T13:19:10;9.18;;;4.90;;
75990;SDS011;64673;52.276;10.560;2022-12-15T13:24:15;13.45;;;5.72;;
75990;SDS011;64673;52.276;10.560;2022-12-15T13:27:17;15.00;;;5.30;;
75990;SDS011;64673;52.276;10.560;2022-12-15T13:47:59;14.10;;;5.38;;
75990;SDS011;64673;52.276;10.560;2022-12-15T13:50:29;13.30;;;5.35;;
75990;SDS011;64673;52.276;10.560;2022-12-15T13:53:00;12.57;;;5.53;;
75990;SDS011;64673;52.276;10.560;2022-12-15T13:55:32;12.10;;;4.60;;
75990;SDS011;64673;52.276;10.560;2022-12-15T14:00:29;11.82;;;5.60;;
75990;SDS011;64673;52.276;10.560;2022-12-15T14:05:54;12.13;;;4.82;;
75990;SDS011;64673;52.276;10.560;2022-12-15T14:08:22;11.65;;;5.35;;
75990;SDS011;64673;52.276;10.560;2022-12-15T14:13:23;14.07;;;5.50;;
75990;SDS011;64673;52.276;10.560;2022-12-15T14:15:51;12.27;;;5.70;;
75990;SDS011;64673;52.276;10.560;2022-12-15T14:18:35;12.68;;;5.10;;
75990;SDS011;64673;52.276;10.560;2022-12-15T14:21:05;10.82;;;5.28;;
75990;SDS011;64673;52.276;10.560;2022-12-15T14:23:41;11.95;;;5.00;;
75990;SDS011;64673;52.276;10.560;2022-12-15T14:26:09;10.27;;;5.15;;
75990;SDS011;64673;52.276;10.560;2022-12-15T14:28:37;14.65;;;5.65;;
75990;SDS011;64673;52.276;10.560;2022-12-15T14:31:10;15.75;;;4.88;;
75990;SDS011;64673;52.276;10.560;2022-12-15T14:33:48;12.32;;;4.80;;
75990;SDS011;64673;52.276;10.560;2022-12-15T14:36:17;11.43;;;5.18;;
75990;SDS011;64673;52.276;10.560;2022-12-15T14:38:46;11.30;;;5.28;;
75990;SDS011;64673;52.276;10.560;2022-12-15T14:41:36;10.50;;;4.70;;
75990;SDS011;64673;52.276;10.560;2022-12-15T14:44:12;14.38;;;7.72;;
75990;SDS011;64673;52.276;10.560;2022-12-15T14:46:59;15.32;;;5.57;;
75990;SDS011;64673;52.276;10.560;2022-12-15T14:49:27;14.57;;;6.40;;
75990;SDS011;64673;52.276;10.560;2022-12-15T14:51:57;14.45;;;5.47;;
75990;SDS011;64673;52.276;10.560;2022-12-15T14:57:13;15.18;;;5.88;;
75990;SDS011;64673;52.276;10.560;2022-12-15T14:59:41;13.80;;;5.55;;
75990;SDS011;64673;52.276;10.560;2022-12-15T15:04:33;9.50;;;4.23;;
75990;SDS011;64673;52.276;10.560;2022-12-15T15:06:59;8.68;;;4.63;;
75990;SDS011;64673;52.276;10.560;2022-12-15T15:11:58;12.73;;;4.68;;
75990;SDS011;64673;52.276;10.560;2022-12-15T15:14:31;12.50;;;5.00;;
75990;SDS011;64673;52.276;10.560;2022-12-15T15:19:56;13.15;;;5.22;;
75990;SDS011;64673;52.276;10.560;2022-12-15T15:27:48;12.13;;;5.78;;
75990;SDS011;64673;52.276;10.560;2022-12-15T15:32:54;11.38;;;5.18;;
75990;SDS011;64673;52.276;10.560;2022-12-15T15:35:22;9.93;;;4.75;;
75990;SDS011;64673;52.276;10.560;2022-12-15T15:37:50;10.60;;;4.95;;
75990;SDS011;64673;52.276;10.560;2022-12-15T15:40:17;12.80;;;5.45;;
75990;SDS011;64673;52.276;10.560;2022-12-15T15:42:43;11.48;;;5.53;;
75990;SDS011;64673;52.276;10.560;2022-12-15T15:45:12;12.18;;;5.63;;
75990;SDS011;64673;52.276;10.560;2022-12-15T15:47:38;12.13;;;5.70;;
75990;SDS011;64673;52.276;10.560;2022-12-15T15:50:13;16.67;;;6.15;;
75990;SDS011;64673;52.276;10.560;2022-12-15T15:52:40;12.38;;;5.93;;
75990;SDS011;64673;52.276;10.560;2022-12-15T15:55:07;15.35;;;6.43;;
75990;SDS011;64673;52.276;10.560;2022-12-15T15:57:37;13.05;;;6.15;;
75990;SDS011;64673;52.276;10.560;2022-12-15T16:00:06;14.85;;;7.18;;
75990;SDS011;64673;52.276;10.560;2022-12-15T16:02:40;14.68;;;6.40;;
75990;SDS011;64673;52.276;10.560;2022-12-15T16:05:06;13.82;;;6.80;;
75990;SDS011;64673;52.276;10.560;2022-12-15T16:07:32;16.58;;;6.57;;
75990;SDS011;64673;52.276;10.560;2022-12-15T16:09:57;14.02;;;6.80;;
75990;SDS011;64673;52.276;10.560;2022-12-15T16:12:24;12.00;;;5.88;;
75990;SDS011;64673;52.276;10.560;2022-12-15T16:14:53;15.23;;;6.72;;
75990;SDS011;64673;52.276;10.560;2022-12-15T16:17:19;15.77;;;6.22;;
75990;SDS011;64673;52.276;10.560;2022-12-15T16:19:44;12.43;;;5.68;;
75990;SDS011;64673;52.276;10.560;2022-12-15T16:22:17;17.23;;;6.97;;
75990;SDS011;64673;52.276;10.560;2022-12-15T16:27:10;12.55;;;5.00;;
75990;SDS011;64673;52.276;10.560;2022-12-15T16:29:37;13.52;;;5.28;;
75990;SDS011;64673;52.276;10.560;2022-12-15T16:32:07;15.40;;;5.93;;
75990;SDS011;64673;52.276;10.560;2022-12-15T16:34:33;12.10;;;5.25;;
75990;SDS011;64673;52.276;10.560;2022-12-15T16:37:00;16.35;;;7.28;;
75990;SDS011;64673;52.276;10.560;2022-12-15T16:39:27;11.68;;;5.50;;
75990;SDS011;64673;52.276;10.560;2022-12-15T16:41:56;13.57;;;6.45;;
75990;SDS011;64673;52.276;10.560;2022-12-15T16:44:23;18.40;;;7.63;;
75990;SDS011;64673;52.276;10.560;2022-12-15T16:46:50;13.50;;;6.78;;
75990;SDS011;64673;52.276;10.560;2022-12-15T16:49:15;18.75;;;6.75;;
75990;SDS011;64673;52.276;10.560;2022-12-15T16:51:41;19.27;;;7.43;;
75990;SDS011;64673;52.276;10.560;2022-12-15T16:54:14;13.32;;;7.00;;
75990;SDS011;64673;52.276;10.560;2022-12-15T16:56:41;13.57;;;6.75;;
75990;SDS011;64673;52.276;10.560;2022-12-15T16:59:17;15.38;;;7.38;;
75990;SDS011;64673;52.276;10.560;2022-12-15T17:01:44;19.10;;;8.57;;
75990;SDS011;64673;52.276;10.560;2022-12-15T17:04:10;15.32;;;6.43;;
75990;SDS011;64673;52.276;10.560;2022-12-15T17:06:36;15.05;;;7.50;;
75990;SDS011;64673;52.276;10.560;2022-12-15T17:09:01;16.70;;;7.88;;
75990;SDS011;64673;52.276;10.560;2022-12-15T17:11:28;17.67;;;7.68;;
75990;SDS011;64673;52.276;10.560;2022-12-15T17:13:57;12.95;;;6.95;;
75990;SDS011;64673;52.276;10.560;2022-12-15T17:16:25;15.70;;;7.35;;
75990;SDS011;64673;52.276;10.560;2022-12-15T17:18:51;18.52;;;8.20;;
75990;SDS011;64673;52.276;10.560;2022-12-15T17:21:22;17.23;;;8.00;;
75990;SDS011;64673;52.276;10.560;2022-12-15T17:23:57;19.40;;;8.57;;
75990;SDS011;64673;52.276;10.560;2022-12-15T17:28:54;15.50;;;6.97;;
75990;SDS011;64673;52.276;10.560;2022-12-15T17:31:23;25.70;;;10.32;;
75990;SDS011;64673;52.276;10.560;2022-12-15T17:33:50;19.38;;;8.43;;
75990;SDS011;64673;52.276;10.560;2022-12-15T17:36:23;22.65;;;9.95;;
75990;SDS011;64673;52.276;10.560;2022-12-15T17:38:54;19.10;;;7.97;;
75990;SDS011;64673;52.276;10.560;2022-12-15T17:41:22;19.73;;;8.20;;